Time;durP1;ratioP1;P1;durP2;ratioP2;P2;SDS_P1;SDS_P2;PMS_P1;PMS_P2;Temp;Humidity;BMP_temperature;BMP_pressure;BME280_temperature;BME280_humidity;BME280_pressure;Samples;Min_cycle;Max_cycle;Signal;HPM_P1;HPM_P2
2021/01/21 00:00:52;;;;;;;0.30;0.30;;;2.00;99.90;;;;;;6218460;23;20012;-95
2021/01/21 00:03:18;;;;;;;2.63;0.77;;;2.00;99.90;;;;;;6216191;23;20014;-95
2021/01/21 00:05:44;;;;;;;0.40;0.30;;;2.00;99.90;;;;;;6216636;23;20437;-94
2021/01/21 00:08:10;;;;;;;1.40;0.70;;;1.90;99.90;;;;;;6215895;23;20103;-94
2021/01/21 00:10:36;;;;;;;9.20;2.15;;;1.90;99.90;;;;;;6217226;23;20016;-95
2021/01/21 00:13:02;;;;;;;4.57;1.33;;;1.90;99.90;;;;;;6216148;23;20090;-95
2021/01/21 00:15:27;;;;;;;13.65;2.97;;;1.90;99.90;;;;;;6214437;23;19996;-95
2021/01/21 00:17:53;;;;;;;4.18;1.33;;;1.80;99.90;;;;;;6214293;23;20008;-94
2021/01/21 00:20:19;;;;;;;12.93;4.72;;;1.80;99.90;;;;;;6213611;23;20382;-96
2021/01/21 00:22:45;;;;;;;5.10;2.42;;;1.80;99.90;;;;;;6214369;23;20005;-95
2021/01/21 00:25:14;;;;;;;9.50;4.40;;;1.90;99.90;;;;;;6214241;23;20020;-95
2021/01/21 00:27:40;;;;;;;9.90;3.13;;;1.90;99.90;;;;;;6213633;23;20028;-95
2021/01/21 00:30:08;;;;;;;1.73;1.10;;;2.00;99.90;;;;;;6215537;23;20008;-95
2021/01/21 00:32:34;;;;;;;2.25;0.82;;;2.00;99.90;;;;;;6215149;23;20416;-96
2021/01/21 00:35:00;;;;;;;1.75;0.55;;;2.10;99.90;;;;;;6214348;23;20068;-95
2021/01/21 00:37:25;;;;;;;2.50;0.60;;;2.10;99.90;;;;;;6217151;23;20375;-94
2021/01/21 00:39:51;;;;;;;1.95;1.00;;;2.10;99.90;;;;;;6218655;23;20005;-95
2021/01/21 00:42:17;;;;;;;2.42;1.00;;;2.00;99.90;;;;;;6216203;23;20005;-95
2021/01/21 00:44:43;;;;;;;3.03;0.98;;;2.10;99.90;;;;;;6215899;23;20016;-96
2021/01/21 00:47:08;;;;;;;2.53;1.50;;;2.10;99.90;;;;;;6215196;23;20455;-96
2021/01/21 00:49:37;;;;;;;6.82;2.30;;;2.10;99.90;;;;;;6218828;23;20084;-96
2021/01/21 00:52:02;;;;;;;2.47;1.00;;;2.00;99.90;;;;;;6225157;23;20005;-96
2021/01/21 00:54:28;;;;;;;2.33;1.10;;;2.00;99.90;;;;;;6228031;23;20064;-95
2021/01/21 00:56:54;;;;;;;1.35;1.20;;;2.00;99.90;;;;;;6225412;23;20336;-92
2021/01/21 00:59:20;;;;;;;3.08;1.40;;;2.00;99.90;;;;;;6223633;23;20000;-95
2021/01/21 01:01:45;;;;;;;3.60;1.77;;;2.00;99.90;;;;;;6219922;23;20432;-95
2021/01/21 01:04:11;;;;;;;2.85;1.60;;;2.10;99.90;;;;;;6216025;23;20005;-95
2021/01/21 01:06:37;;;;;;;2.25;1.70;;;2.10;99.90;;;;;;6217975;23;20060;-96
2021/01/21 01:09:03;;;;;;;6.20;1.55;;;2.10;99.90;;;;;;6216785;23;20383;-95
2021/01/21 01:11:29;;;;;;;6.57;2.92;;;2.10;99.90;;;;;;6217761;23;20008;-96
2021/01/21 01:13:54;;;;;;;6.93;2.92;;;2.20;99.90;;;;;;6222337;23;20005;-96
2021/01/21 01:16:20;;;;;;;5.22;3.00;;;2.20;99.90;;;;;;6217706;23;20332;-95
2021/01/21 01:18:46;;;;;;;4.40;1.70;;;2.20;99.90;;;;;;6216204;23;20000;-95
2021/01/21 01:21:11;;;;;;;1.27;1.10;;;2.10;99.90;;;;;;6216345;23;20497;-94
2021/01/21 01:23:38;;;;;;;1.38;0.77;;;2.00;99.90;;;;;;6215555;23;20001;-95
2021/01/21 01:26:04;;;;;;;1.00;0.70;;;2.00;99.90;;;;;;6219212;23;20087;-94
2021/01/21 01:28:30;;;;;;;0.35;0.35;;;2.00;99.90;;;;;;6224035;23;20032;-94
2021/01/21 01:30:56;;;;;;;0.60;0.60;;;2.00;99.90;;;;;;6215408;23;20024;-94
2021/01/21 01:33:21;;;;;;;0.70;0.68;;;1.90;99.90;;;;;;6214589;23;20005;-94
2021/01/21 01:35:47;;;;;;;0.77;0.68;;;1.90;99.90;;;;;;6213759;23;20083;-94
2021/01/21 01:38:13;;;;;;;1.27;0.70;;;1.80;99.90;;;;;;6213891;23;20019;-93
2021/01/21 01:40:39;;;;;;;0.52;0.52;;;1.80;99.90;;;;;;6215243;23;20001;-93
2021/01/21 01:43:05;;;;;;;1.60;0.90;;;1.80;99.90;;;;;;6215423;23;20024;-95
2021/01/21 01:45:31;;;;;;;3.10;1.35;;;1.80;99.90;;;;;;6216828;23;20039;-95
2021/01/21 01:47:57;;;;;;;2.47;1.13;;;1.80;99.90;;;;;;6215620;23;20017;-94
2021/01/21 01:50:25;;;;;;;2.65;0.90;;;1.90;99.90;;;;;;6216760;23;20008;-95
2021/01/21 01:52:54;;;;;;;1.02;1.00;;;1.90;99.90;;;;;;6215688;23;20013;-95
2021/01/21 01:55:21;;;;;;;1.25;0.80;;;1.90;99.90;;;;;;6214711;23;20012;-95
2021/01/21 01:57:54;;;;;;;3.40;0.65;;;1.90;99.90;;;;;;6214412;23;20012;-94
2021/01/21 02:00:21;;;;;;;0.98;0.77;;;2.00;99.90;;;;;;6214180;23;20016;-92
2021/01/21 02:02:50;;;;;;;0.75;0.52;;;2.00;99.90;;;;;;6214676;23;20012;-95
2021/01/21 02:05:17;;;;;;;1.60;0.57;;;2.00;99.90;;;;;;6216435;23;20428;-94
2021/01/21 02:07:44;;;;;;;0.77;0.70;;;2.00;99.90;;;;;;6215950;23;20040;-95
2021/01/21 02:10:12;;;;;;;2.42;1.25;;;2.00;99.90;;;;;;6216959;23;20001;-96
2021/01/21 02:13:15;;;;;;;1.60;1.50;;;2.00;99.90;;;;;;6216995;23;20017;-96
2021/01/21 02:16:05;;;;;;;6.82;3.80;;;2.00;99.90;;;;;;6215774;23;20008;-94
2021/01/21 02:18:52;;;;;;;7.35;5.22;;;2.00;99.90;;;;;;6219026;23;20016;-96
2021/01/21 02:21:54;;;;;;;7.63;4.78;;;2.00;99.90;;;;;;6222624;23;20012;-96
2021/01/21 02:25:05;;;;;;;4.80;3.42;;;2.00;99.90;;;;;;6222779;23;20008;-96
2021/01/21 02:27:52;;;;;;;5.15;3.72;;;2.00;99.90;;;;;;6206391;23;20016;-95
2021/01/21 02:30:51;;;;;;;5.15;3.78;;;2.00;99.90;;;;;;6228599;23;20032;-94
2021/01/21 02:33:19;;;;;;;11.18;5.70;;;2.10;99.90;;;;;;6212328;23;20001;-95
2021/01/21 02:35:52;;;;;;;8.02;3.97;;;2.10;99.90;;;;;;6222572;23;20013;-95
2021/01/21 02:38:26;;;;;;;5.70;3.47;;;2.20;99.90;;;;;;6233745;22;20027;-95
2021/01/21 02:41:14;;;;;;;12.02;5.07;;;2.10;99.90;;;;;;6232549;23;20004;-96
2021/01/21 02:43:51;;;;;;;11.60;4.50;;;2.20;99.90;;;;;;6233643;23;20013;-95
2021/01/21 02:46:23;;;;;;;8.32;3.58;;;2.20;99.90;;;;;;6233837;23;19988;-95
2021/01/21 02:48:55;;;;;;;7.57;3.65;;;2.20;99.90;;;;;;6231005;23;20072;-96
2021/01/21 02:51:41;;;;;;;8.45;3.15;;;2.30;99.90;;;;;;6231201;23;20020;-95
2021/01/21 02:54:48;;;;;;;5.05;3.17;;;2.30;99.90;;;;;;6236116;23;19985;-96
2021/01/21 02:57:27;;;;;;;5.43;2.65;;;2.40;99.90;;;;;;6239932;23;19984;-96
2021/01/21 03:00:00;;;;;;;6.85;3.38;;;2.40;99.90;;;;;;6233699;23;19988;-95
2021/01/21 03:02:44;;;;;;;5.93;2.95;;;2.40;99.90;;;;;;6207035;23;20036;-95
2021/01/21 03:05:16;;;;;;;9.85;3.20;;;2.40;99.90;;;;;;6234310;23;20076;-95
2021/01/21 03:07:46;;;;;;;5.93;3.03;;;2.50;99.90;;;;;;6237355;23;20020;-96
2021/01/21 03:10:19;;;;;;;7.65;2.47;;;2.50;99.90;;;;;;6236710;23;20055;-96
2021/01/21 03:12:52;;;;;;;4.25;1.98;;;2.50;99.90;;;;;;6235788;22;20017;-95
2021/01/21 03:15:20;;;;;;;6.47;1.98;;;2.50;99.90;;;;;;6235599;23;19986;-96
2021/01/21 03:17:50;;;;;;;5.95;2.90;;;2.50;99.90;;;;;;6238397;22;20001;-96
2021/01/21 03:20:16;;;;;;;3.97;1.67;;;2.50;99.90;;;;;;6232525;23;20420;-96
2021/01/21 03:22:44;;;;;;;2.92;2.22;;;2.40;99.90;;;;;;6217987;23;20028;-95
2021/01/21 03:25:11;;;;;;;3.70;3.05;;;2.40;99.90;;;;;;6221389;23;20095;-96
2021/01/21 03:27:59;;;;;;;1.60;1.50;;;2.40;99.90;;;;;;6234559;22;20017;-96
2021/01/21 03:31:02;;;;;;;8.63;3.35;;;2.30;99.90;;;;;;6239153;22;20012;-95
2021/01/21 03:33:36;;;;;;;5.80;3.33;;;2.30;99.90;;;;;;6240595;23;20000;-96
2021/01/21 03:36:05;;;;;;;5.55;3.00;;;2.40;99.90;;;;;;6241227;23;19988;-96
2021/01/21 03:38:37;;;;;;;4.35;3.13;;;2.40;99.90;;;;;;6236306;23;20001;-95
2021/01/21 03:41:18;;;;;;;4.28;2.40;;;2.40;99.90;;;;;;6241909;22;19993;-95
2021/01/21 03:43:52;;;;;;;2.28;1.83;;;2.50;99.90;;;;;;6233386;22;20051;-95
2021/01/21 03:46:18;;;;;;;7.43;2.20;;;2.50;99.90;;;;;;6223088;23;20000;-96
2021/01/21 03:48:44;;;;;;;5.07;2.15;;;2.50;99.90;;;;;;6220105;23;20043;-95
2021/01/21 03:51:11;;;;;;;3.00;1.65;;;2.50;99.90;;;;;;6224843;23;20092;-95
2021/01/21 03:53:40;;;;;;;3.13;2.20;;;2.50;99.90;;;;;;6229759;23;20519;-95
2021/01/21 03:56:06;;;;;;;2.38;2.00;;;2.40;99.90;;;;;;6236818;22;19993;-96
2021/01/21 03:58:32;;;;;;;5.82;2.20;;;2.40;99.90;;;;;;6238472;23;20064;-95
2021/01/21 04:01:03;;;;;;;7.32;2.40;;;2.30;99.90;;;;;;6230079;23;20007;-95
2021/01/21 04:03:29;;;;;;;2.83;1.60;;;2.30;99.90;;;;;;6222148;23;20008;-95
2021/01/21 04:06:01;;;;;;;1.05;0.95;;;2.30;99.90;;;;;;6221198;23;20007;-96
2021/01/21 04:08:28;;;;;;;3.63;1.20;;;2.40;99.90;;;;;;6196317;23;20027;-94
2021/01/21 04:10:54;;;;;;;5.07;1.67;;;2.40;99.90;;;;;;6220312;23;20001;-94
2021/01/21 04:13:20;;;;;;;1.55;1.10;;;2.40;99.90;;;;;;6222872;23;20004;-96
2021/01/21 04:15:49;;;;;;;1.38;1.20;;;2.40;99.90;;;;;;6228368;23;20040;-94
2021/01/21 04:18:15;;;;;;;4.85;1.50;;;2.40;99.90;;;;;;6232478;23;20001;-95
2021/01/21 04:20:43;;;;;;;1.80;1.33;;;2.40;99.90;;;;;;6230713;23;20008;-96
2021/01/21 04:23:10;;;;;;;3.33;1.17;;;2.40;99.90;;;;;;6226617;23;20004;-95
2021/01/21 04:25:35;;;;;;;3.40;1.30;;;2.40;99.90;;;;;;6226406;23;19988;-95
2021/01/21 04:28:04;;;;;;;5.00;1.70;;;2.40;99.90;;;;;;6227411;23;20040;-95
2021/01/21 04:30:31;;;;;;;3.87;1.17;;;2.40;99.90;;;;;;6229815;23;20005;-96
2021/01/21 04:33:01;;;;;;;1.90;0.95;;;2.40;99.90;;;;;;6229933;23;20095;-96
2021/01/21 04:35:26;;;;;;;3.03;1.30;;;2.40;99.90;;;;;;6228596;23;20012;-95
2021/01/21 04:37:59;;;;;;;2.67;0.68;;;2.40;99.90;;;;;;6233072;23;20005;-95
2021/01/21 04:40:58;;;;;;;3.45;1.20;;;2.40;99.90;;;;;;6235624;23;20023;-96
2021/01/21 04:43:29;;;;;;;3.38;1.40;;;2.40;99.90;;;;;;6234394;23;20017;-95
2021/01/21 04:45:55;;;;;;;2.92;1.48;;;2.30;99.90;;;;;;6227452;23;20019;-94
2021/01/21 04:48:22;;;;;;;2.28;1.10;;;2.40;99.90;;;;;;6225826;23;20072;-95
2021/01/21 04:50:51;;;;;;;3.35;0.70;;;2.40;99.90;;;;;;6221807;23;19989;-94
2021/01/21 04:53:24;;;;;;;0.80;0.77;;;2.30;99.90;;;;;;6228024;23;20024;-94
2021/01/21 04:56:00;;;;;;;2.97;1.10;;;2.30;99.90;;;;;;6221378;23;20094;-95
2021/01/21 04:58:38;;;;;;;2.60;1.10;;;2.30;99.90;;;;;;6223473;23;20058;-95
2021/01/21 05:01:04;;;;;;;2.85;1.23;;;2.30;99.90;;;;;;6223577;23;20043;-94
2021/01/21 05:03:30;;;;;;;3.30;1.20;;;2.30;99.90;;;;;;6219380;23;19997;-96
2021/01/21 05:05:57;;;;;;;4.25;1.13;;;2.30;99.90;;;;;;6215627;23;20233;-95
2021/01/21 05:08:23;;;;;;;2.28;0.95;;;2.30;99.90;;;;;;6219851;23;20020;-95
2021/01/21 05:10:50;;;;;;;6.03;1.20;;;2.30;99.90;;;;;;6219916;23;20435;-95
2021/01/21 05:13:16;;;;;;;3.70;1.08;;;2.30;99.90;;;;;;6219280;23;20328;-95
2021/01/21 05:15:43;;;;;;;2.08;1.42;;;2.30;99.90;;;;;;6218911;23;20054;-96
2021/01/21 05:18:10;;;;;;;4.45;1.40;;;2.30;99.90;;;;;;6222179;23;20035;-95
2021/01/21 05:20:36;;;;;;;1.50;1.20;;;2.30;99.90;;;;;;6225336;23;20012;-94
2021/01/21 05:23:05;;;;;;;1.73;1.05;;;2.30;99.90;;;;;;6220669;23;20004;-95
2021/01/21 05:25:33;;;;;;;4.03;1.30;;;2.30;99.90;;;;;;6225704;23;20008;-96
2021/01/21 05:28:05;;;;;;;1.05;1.00;;;2.20;99.90;;;;;;6223123;23;20023;-95
2021/01/21 05:30:33;;;;;;;4.07;1.40;;;2.30;99.90;;;;;;6230371;23;20001;-95
2021/01/21 05:33:03;;;;;;;4.30;1.08;;;2.30;99.90;;;;;;6206973;23;20000;-96
2021/01/21 05:35:29;;;;;;;2.00;1.00;;;2.30;99.90;;;;;;6230711;23;20068;-95
2021/01/21 05:37:59;;;;;;;4.38;1.10;;;2.30;99.90;;;;;;6226455;23;20009;-95
2021/01/21 05:40:30;;;;;;;1.40;0.93;;;2.20;99.90;;;;;;6223952;23;20061;-96
2021/01/21 05:42:58;;;;;;;2.25;0.82;;;2.20;99.90;;;;;;6232246;22;20020;-94
2021/01/21 05:45:25;;;;;;;1.60;0.80;;;2.30;99.90;;;;;;6225457;23;20008;-96
2021/01/21 05:48:03;;;;;;;2.35;0.90;;;2.20;99.90;;;;;;6227924;23;20441;-95
2021/01/21 05:50:30;;;;;;;3.55;1.02;;;2.30;99.90;;;;;;6196451;23;20023;-94
2021/01/21 05:53:00;;;;;;;3.85;1.10;;;2.30;99.90;;;;;;6218491;23;20005;-96
2021/01/21 05:55:30;;;;;;;1.90;1.08;;;2.30;99.90;;;;;;6225171;23;20008;-95
2021/01/21 05:57:58;;;;;;;2.25;1.05;;;2.30;99.90;;;;;;6232646;23;20020;-96
2021/01/21 06:00:25;;;;;;;4.80;1.20;;;2.30;99.90;;;;;;6206885;23;20012;-95
2021/01/21 06:02:55;;;;;;;2.47;0.80;;;2.40;99.90;;;;;;6231050;23;20005;-96
2021/01/21 06:05:23;;;;;;;5.82;1.00;;;2.40;99.90;;;;;;6230594;23;20012;-94
2021/01/21 06:07:51;;;;;;;2.83;0.75;;;2.40;99.90;;;;;;6229138;23;20025;-95
2021/01/21 06:10:19;;;;;;;2.60;1.00;;;2.40;99.90;;;;;;6228636;23;20004;-94
2021/01/21 06:12:48;;;;;;;4.35;1.10;;;2.40;99.90;;;;;;6227730;23;20016;-95
2021/01/21 06:15:15;;;;;;;1.88;0.88;;;2.40;99.90;;;;;;6229025;23;20391;-96
2021/01/21 06:17:44;;;;;;;1.95;0.80;;;2.50;99.90;;;;;;6227127;23;20017;-96
2021/01/21 06:20:12;;;;;;;6.80;1.30;;;2.50;99.90;;;;;;6226316;23;20020;-96
2021/01/21 06:22:44;;;;;;;2.22;1.00;;;2.50;99.90;;;;;;6223699;23;20005;-93
2021/01/21 06:25:24;;;;;;;7.90;1.10;;;2.40;99.90;;;;;;6216888;23;20436;-94
2021/01/21 06:27:59;;;;;;;2.53;1.00;;;2.40;99.90;;;;;;6224727;23;20009;-94
2021/01/21 06:30:26;;;;;;;2.95;1.20;;;2.40;99.90;;;;;;6223726;23;20032;-96
2021/01/21 06:33:06;;;;;;;1.80;1.30;;;2.40;99.90;;;;;;6216121;23;20447;-95
2021/01/21 06:35:39;;;;;;;1.60;1.00;;;2.40;99.90;;;;;;6222121;23;20091;-93
2021/01/21 06:38:08;;;;;;;1.08;0.93;;;2.40;99.90;;;;;;6221327;23;20083;-94
2021/01/21 06:40:37;;;;;;;1.35;0.90;;;2.30;99.90;;;;;;6223564;23;20046;-95
2021/01/21 06:43:16;;;;;;;3.40;1.23;;;2.40;99.90;;;;;;6196079;23;20020;-94
2021/01/21 06:45:53;;;;;;;3.03;1.00;;;2.30;99.90;;;;;;6229803;23;19989;-95
2021/01/21 06:48:19;;;;;;;1.30;1.00;;;2.30;99.90;;;;;;6226485;23;20020;-95
2021/01/21 06:50:46;;;;;;;3.50;0.82;;;2.30;99.90;;;;;;6222002;23;20020;-95
2021/01/21 06:53:12;;;;;;;2.63;1.10;;;2.30;99.90;;;;;;6218693;23;20011;-94
2021/01/21 06:55:40;;;;;;;0.75;0.70;;;2.30;99.90;;;;;;6222936;23;20008;-94
2021/01/21 06:58:07;;;;;;;0.98;0.80;;;2.30;99.90;;;;;;6223538;23;20020;-93
2021/01/21 07:00:43;;;;;;;2.05;0.70;;;2.30;99.90;;;;;;6221778;23;20059;-94
2021/01/21 07:03:28;;;;;;;2.53;0.77;;;2.30;99.90;;;;;;6220030;23;20019;-95
2021/01/21 07:06:02;;;;;;;2.67;0.70;;;2.30;99.90;;;;;;6216232;23;20005;-93
2021/01/21 07:08:29;;;;;;;1.25;0.75;;;2.30;99.90;;;;;;6220916;23;20039;-96
2021/01/21 07:10:59;;;;;;;3.15;0.70;;;2.40;99.90;;;;;;6227772;23;20009;-95
2021/01/21 07:13:29;;;;;;;2.45;0.80;;;2.30;99.90;;;;;;6221035;23;20008;-96
2021/01/21 07:16:00;;;;;;;1.88;0.70;;;2.40;99.90;;;;;;6219319;23;20004;-93
2021/01/21 07:18:41;;;;;;;1.35;0.70;;;2.40;99.90;;;;;;6219021;23;20088;-96
2021/01/21 07:21:25;;;;;;;1.88;1.35;;;2.50;99.90;;;;;;6223057;23;20031;-96
2021/01/21 07:23:57;;;;;;;0.80;0.70;;;2.40;99.90;;;;;;6224892;23;20012;-95
2021/01/21 07:27:04;;;;;;;1.55;0.88;;;2.50;99.90;;;;;;6227049;23;19996;-96
2021/01/21 07:29:37;;;;;;;1.90;0.65;;;2.50;99.90;;;;;;6231370;23;20024;-96
2021/01/21 07:32:05;;;;;;;2.92;1.02;;;2.50;99.90;;;;;;6226676;23;20005;-96
2021/01/21 07:34:42;;;;;;;1.35;0.85;;;2.50;99.90;;;;;;6235251;23;20079;-95
2021/01/21 07:37:17;;;;;;;2.47;0.70;;;2.50;99.90;;;;;;6229771;23;20482;-95
2021/01/21 07:39:53;;;;;;;1.92;0.60;;;2.50;99.90;;;;;;6222233;23;20070;-95
2021/01/21 07:42:43;;;;;;;0.90;0.63;;;2.50;99.90;;;;;;6223919;23;20016;-95
2021/01/21 07:45:47;;;;;;;2.65;0.60;;;2.60;99.90;;;;;;6233911;23;20012;-95
2021/01/21 07:48:50;;;;;;;2.67;0.40;;;2.60;99.90;;;;;;6235655;23;20076;-96
2021/01/21 07:51:19;;;;;;;3.78;0.90;;;2.60;99.90;;;;;;6188235;23;20009;-95
2021/01/21 07:54:04;;;;;;;3.45;0.65;;;2.60;99.90;;;;;;6145164;23;20036;-96
2021/01/21 07:56:32;;;;;;;5.57;0.95;;;2.60;99.90;;;;;;6166387;23;20072;-95
2021/01/21 07:59:02;;;;;;;2.85;0.82;;;2.70;99.90;;;;;;6165816;23;20009;-95
2021/01/21 08:01:28;;;;;;;0.52;0.50;;;2.60;99.90;;;;;;6172501;23;20037;-95
2021/01/21 08:04:22;;;;;;;1.80;0.75;;;2.70;99.90;;;;;;6173080;23;20024;-96
2021/01/21 08:07:01;;;;;;;0.70;0.55;;;2.60;99.90;;;;;;6201084;23;20121;-95
2021/01/21 08:09:26;;;;;;;4.53;0.80;;;2.70;99.90;;;;;;6164983;23;20036;-96
2021/01/21 08:11:59;;;;;;;2.50;0.80;;;2.70;99.90;;;;;;6167642;23;20001;-96
2021/01/21 08:14:33;;;;;;;2.28;0.90;;;2.60;99.90;;;;;;6204512;23;20001;-96
2021/01/21 08:17:05;;;;;;;4.28;0.68;;;2.60;99.90;;;;;;6173672;23;20005;-95
2021/01/21 08:19:38;;;;;;;7.68;0.90;;;2.60;99.90;;;;;;6174005;23;20005;-95
2021/01/21 08:22:07;;;;;;;5.07;0.70;;;2.60;99.90;;;;;;6208320;23;20051;-95
2021/01/21 08:24:53;;;;;;;0.73;0.43;;;2.60;99.90;;;;;;6225514;23;20060;-95
2021/01/21 08:27:23;;;;;;;1.65;0.60;;;2.60;99.90;;;;;;6228348;23;20016;-96
2021/01/21 08:29:48;;;;;;;1.20;0.70;;;2.60;99.90;;;;;;6216324;23;20005;-95
2021/01/21 08:32:14;;;;;;;1.27;0.70;;;2.60;99.90;;;;;;6215840;23;20027;-93
2021/01/21 08:34:41;;;;;;;4.82;0.70;;;2.70;99.90;;;;;;6216344;23;20013;-93
2021/01/21 08:37:07;;;;;;;1.42;0.65;;;2.70;99.90;;;;;;6216188;23;20428;-93
2021/01/21 08:39:34;;;;;;;1.95;0.68;;;2.70;99.90;;;;;;6216127;23;20032;-94
2021/01/21 08:42:00;;;;;;;2.60;0.80;;;2.70;99.90;;;;;;6217261;23;20005;-92
2021/01/21 08:44:26;;;;;;;1.98;0.60;;;2.60;99.90;;;;;;6229467;23;20013;-94
2021/01/21 08:46:59;;;;;;;2.03;0.77;;;2.60;99.90;;;;;;6226575;23;20019;-93
2021/01/21 08:49:26;;;;;;;2.50;1.23;;;2.60;99.90;;;;;;6226794;23;20011;-95
2021/01/21 08:52:06;;;;;;;1.90;0.50;;;2.60;99.90;;;;;;6227899;23;19996;-94
2021/01/21 08:54:32;;;;;;;0.93;0.63;;;2.60;99.90;;;;;;6224687;23;20009;-93
2021/01/21 08:57:20;;;;;;;0.65;0.30;;;2.60;99.90;;;;;;6222496;23;20001;-92
2021/01/21 08:59:46;;;;;;;0.63;0.35;;;2.60;99.90;;;;;;6216996;23;20471;-96
2021/01/21 09:02:12;;;;;;;2.97;0.70;;;2.60;99.90;;;;;;6216837;23;20008;-95
2021/01/21 09:04:39;;;;;;;7.20;0.98;;;2.60;99.90;;;;;;6215242;23;20063;-93
2021/01/21 09:07:06;;;;;;;0.82;0.50;;;2.60;99.90;;;;;;6213898;23;20012;-95
2021/01/21 09:09:37;;;;;;;1.92;0.52;;;2.60;99.90;;;;;;6187740;23;20072;-95
2021/01/21 09:12:13;;;;;;;;;;;2.70;99.90;;;;;;6213805;23;20023;-94
2021/01/21 09:14:39;;;;;;;2.83;0.70;;;2.70;99.90;;;;;;6213602;23;19986;-96
2021/01/21 09:17:15;;;;;;;2.45;0.90;;;2.70;99.90;;;;;;6216183;23;20005;-94
2021/01/21 09:19:45;;;;;;;3.05;0.60;;;2.70;99.90;;;;;;6216582;23;20016;-95
2021/01/21 09:22:14;;;;;;;1.42;0.60;;;2.80;99.90;;;;;;6215626;23;20031;-95
2021/01/21 09:25:00;;;;;;;1.33;0.60;;;2.90;99.90;;;;;;6214435;23;20001;-94
2021/01/21 09:27:32;;;;;;;5.43;0.70;;;3.00;99.90;;;;;;6218828;23;20031;-95
2021/01/21 09:30:11;;;;;;;2.28;0.70;;;3.00;99.90;;;;;;6220569;23;20472;-96
2021/01/21 09:32:42;;;;;;;3.50;1.25;;;3.00;99.90;;;;;;6213731;23;20014;-93
2021/01/21 09:35:19;;;;;;;1.88;0.55;;;3.20;99.90;;;;;;6215728;23;20000;-93
2021/01/21 09:37:53;;;;;;;1.10;0.55;;;3.30;99.90;;;;;;6211761;23;20009;-93
2021/01/21 09:40:22;;;;;;;0.65;0.38;;;3.40;99.90;;;;;;6214265;23;20008;-93
2021/01/21 09:42:48;;;;;;;7.90;1.35;;;3.50;99.90;;;;;;6213372;23;20164;-95
2021/01/21 09:45:14;;;;;;;2.20;0.80;;;3.70;99.90;;;;;;6213604;23;20020;-93
2021/01/21 09:47:40;;;;;;;1.08;0.40;;;3.90;99.90;;;;;;6213106;23;20062;-93
2021/01/21 09:50:08;;;;;;;3.17;0.40;;;4.00;99.90;;;;;;6212644;23;20120;-93
2021/01/21 09:52:34;;;;;;;0.28;0.22;;;4.00;99.90;;;;;;6212771;23;20417;-93
2021/01/21 09:55:01;;;;;;;2.00;0.70;;;4.10;99.90;;;;;;6214221;23;20032;-93
2021/01/21 09:57:27;;;;;;;3.15;0.65;;;4.10;99.90;;;;;;6216460;23;20344;-93
2021/01/21 09:59:53;;;;;;;1.30;0.65;;;4.00;99.90;;;;;;6214178;23;20039;-94
2021/01/21 10:02:19;;;;;;;2.97;0.40;;;4.00;99.90;;;;;;6213075;23;20436;-95
2021/01/21 10:04:45;;;;;;;0.73;0.30;;;4.00;99.90;;;;;;6212791;23;20007;-94
2021/01/21 10:07:11;;;;;;;1.98;0.80;;;3.90;99.90;;;;;;6213797;23;20044;-94
2021/01/21 10:09:37;;;;;;;3.22;0.52;;;3.80;99.90;;;;;;6212641;23;20019;-93
2021/01/21 10:12:04;;;;;;;4.20;0.70;;;3.80;99.90;;;;;;6212654;23;20008;-93
2021/01/21 10:14:30;;;;;;;1.42;0.55;;;3.80;99.90;;;;;;6213456;23;20012;-93
2021/01/21 10:16:57;;;;;;;5.03;1.00;;;3.80;99.90;;;;;;6213299;23;20013;-93
2021/01/21 10:19:23;;;;;;;6.38;1.30;;;3.80;99.90;;;;;;6213426;23;20009;-93
2021/01/21 10:21:49;;;;;;;2.35;0.63;;;3.70;99.90;;;;;;6213223;23;20011;-94
2021/01/21 10:24:15;;;;;;;4.60;1.35;;;3.70;99.90;;;;;;6212849;23;20004;-93
2021/01/21 10:26:40;;;;;;;3.08;0.93;;;3.70;99.90;;;;;;6213218;23;20076;-94
2021/01/21 10:29:06;;;;;;;4.80;0.90;;;3.60;99.90;;;;;;6216027;23;20029;-94
2021/01/21 10:31:32;;;;;;;4.55;0.60;;;3.60;99.90;;;;;;6215341;23;20012;-94
2021/01/21 10:33:58;;;;;;;1.42;0.52;;;3.60;99.90;;;;;;6213721;23;20428;-93
2021/01/21 10:36:25;;;;;;;1.38;0.50;;;3.60;99.90;;;;;;6212774;23;20333;-96
2021/01/21 10:38:51;;;;;;;1.85;0.60;;;3.60;99.90;;;;;;6215039;23;20001;-93
2021/01/21 10:41:17;;;;;;;3.70;0.77;;;3.70;99.90;;;;;;6216428;23;20016;-95
2021/01/21 10:43:42;;;;;;;4.00;1.00;;;3.70;99.90;;;;;;6214769;23;20023;-95
2021/01/21 10:46:08;;;;;;;3.38;1.63;;;3.80;99.90;;;;;;6213966;23;20339;-96
2021/01/21 10:48:34;;;;;;;4.28;0.80;;;3.80;99.90;;;;;;6213960;23;20020;-95
2021/01/21 10:51:00;;;;;;;0.90;0.68;;;3.90;99.90;;;;;;6214766;23;20335;-95
2021/01/21 10:53:25;;;;;;;5.15;1.20;;;3.90;99.90;;;;;;6214509;23;20004;-96
2021/01/21 10:55:51;;;;;;;6.68;1.00;;;3.90;99.90;;;;;;6218393;23;20024;-94
2021/01/21 10:58:17;;;;;;;3.00;1.00;;;3.90;99.90;;;;;;6221636;23;20020;-95
2021/01/21 11:00:47;;;;;;;11.68;2.95;;;3.90;99.90;;;;;;6215209;23;20001;-95
2021/01/21 11:03:16;;;;;;;4.38;1.30;;;3.90;99.90;;;;;;6213877;23;20012;-93
2021/01/21 11:05:43;;;;;;;1.52;0.57;;;3.90;99.90;;;;;;6212991;23;20009;-95
2021/01/21 11:08:10;;;;;;;4.82;1.15;;;4.00;99.90;;;;;;6212679;23;20047;-94
2021/01/21 11:10:36;;;;;;;8.75;1.45;;;4.10;99.90;;;;;;6214402;23;20015;-94
2021/01/21 11:13:03;;;;;;;2.30;1.02;;;4.20;99.90;;;;;;6214791;23;20008;-94
2021/01/21 11:15:29;;;;;;;1.85;0.50;;;4.20;99.90;;;;;;6214623;23;20040;-92
2021/01/21 11:17:55;;;;;;;3.80;1.05;;;4.30;99.90;;;;;;6214809;23;20005;-91
2021/01/21 11:20:21;;;;;;;0.70;0.20;;;4.60;99.90;;;;;;6214907;23;20016;-93
2021/01/21 11:22:47;;;;;;;0.60;0.40;;;5.00;99.90;;;;;;6215462;23;20008;-92
2021/01/21 11:25:13;;;;;;;3.38;0.93;;;5.40;99.90;;;;;;6215956;23;20091;-92
2021/01/21 11:27:39;;;;;;;2.15;0.50;;;5.70;99.90;;;;;;6216048;23;20436;-92
2021/01/21 11:30:07;;;;;;;1.40;0.73;;;5.90;99.90;;;;;;6215266;23;20005;-93
2021/01/21 11:32:33;;;;;;;5.22;0.65;;;5.90;99.90;;;;;;6215215;23;20096;-92
2021/01/21 11:34:59;;;;;;;4.20;1.15;;;5.80;99.90;;;;;;6214075;23;20424;-92
2021/01/21 11:37:25;;;;;;;3.17;0.70;;;5.90;99.90;;;;;;6211637;23;20009;-92
2021/01/21 11:39:52;;;;;;;0.82;0.50;;;6.00;99.90;;;;;;6212688;23;20036;-91
2021/01/21 11:42:18;;;;;;;4.47;0.80;;;6.30;99.90;;;;;;6213754;23;20001;-91
2021/01/21 11:44:44;;;;;;;2.15;0.60;;;6.60;99.90;;;;;;6213660;23;20078;-93
2021/01/21 11:47:09;;;;;;;2.30;0.70;;;6.90;99.90;;;;;;6215094;23;20420;-92
2021/01/21 11:49:35;;;;;;;3.78;0.60;;;7.30;99.90;;;;;;6214372;23;20017;-91
2021/01/21 11:52:01;;;;;;;1.55;0.63;;;7.60;99.90;;;;;;6214138;23;20005;-90
2021/01/21 11:54:27;;;;;;;3.00;0.68;;;7.70;99.90;;;;;;6212862;23;20044;-92
2021/01/21 11:56:52;;;;;;;1.50;0.38;;;7.70;99.70;;;;;;6213092;23;20088;-91
2021/01/21 11:59:18;;;;;;;3.22;0.60;;;7.60;99.70;;;;;;6213248;23;20017;-91
2021/01/21 12:01:44;;;;;;;1.13;0.57;;;7.70;99.00;;;;;;6213485;23;20015;-91
2021/01/21 12:04:10;;;;;;;3.65;0.88;;;7.60;98.70;;;;;;6213263;23;20032;-90
2021/01/21 12:06:35;;;;;;;5.22;0.60;;;7.50;98.60;;;;;;6213687;23;20015;-90
2021/01/21 12:09:02;;;;;;;1.92;0.82;;;7.30;98.90;;;;;;6213173;23;20099;-93
2021/01/21 12:11:29;;;;;;;2.05;0.50;;;7.00;98.30;;;;;;6208243;23;20139;-90
2021/01/21 12:13:55;;;;;;;2.92;0.50;;;6.80;99.10;;;;;;6206149;23;20009;-90
2021/01/21 12:16:21;;;;;;;2.38;0.82;;;6.80;99.80;;;;;;6214093;23;20450;-93
2021/01/21 12:18:47;;;;;;;1.40;0.30;;;6.60;99.60;;;;;;6215074;23;20063;-93
2021/01/21 12:21:12;;;;;;;2.80;0.60;;;6.60;99.90;;;;;;6218469;23;20008;-94
2021/01/21 12:23:38;;;;;;;3.95;0.70;;;6.50;99.90;;;;;;6217875;23;20497;-95
2021/01/21 12:26:06;;;;;;;3.75;0.40;;;6.40;99.90;;;;;;6225360;23;20008;-93
2021/01/21 12:28:35;;;;;;;1.17;0.35;;;6.40;99.90;;;;;;6226660;23;20016;-93
2021/01/21 12:31:02;;;;;;;2.80;0.85;;;6.30;99.90;;;;;;6223476;23;20060;-94
2021/01/21 12:33:28;;;;;;;5.50;0.50;;;6.10;99.90;;;;;;6221258;23;20035;-94
2021/01/21 12:35:54;;;;;;;1.40;0.50;;;6.00;99.90;;;;;;6219821;23;20083;-94
2021/01/21 12:38:20;;;;;;;0.73;0.57;;;5.90;99.90;;;;;;6211949;23;20456;-92
2021/01/21 12:40:46;;;;;;;2.08;0.50;;;5.80;99.90;;;;;;6215161;23;20012;-93
2021/01/21 12:43:12;;;;;;;3.15;0.63;;;5.70;99.90;;;;;;6212925;23;20072;-94
2021/01/21 12:45:40;;;;;;;3.08;0.65;;;5.60;99.90;;;;;;6214715;23;20015;-94
2021/01/21 12:48:07;;;;;;;2.60;0.77;;;5.50;99.90;;;;;;6214045;23;20414;-93
2021/01/21 12:50:33;;;;;;;9.23;0.90;;;5.40;99.90;;;;;;6213613;23;20008;-95
2021/01/21 12:53:00;;;;;;;2.50;1.10;;;5.30;99.90;;;;;;6212905;23;20009;-95
2021/01/21 12:55:26;;;;;;;3.13;0.60;;;5.30;99.90;;;;;;6214131;23;20044;-94
2021/01/21 12:57:51;;;;;;;2.53;0.50;;;5.30;99.90;;;;;;6213310;23;20511;-94
2021/01/21 13:00:18;;;;;;;1.15;0.50;;;5.20;99.90;;;;;;6215616;23;20035;-95
2021/01/21 13:02:44;;;;;;;2.00;0.60;;;5.20;99.90;;;;;;6213869;23;20005;-94
2021/01/21 13:05:10;;;;;;;5.00;1.55;;;5.20;99.90;;;;;;6213553;23;20008;-94
2021/01/21 13:07:39;;;;;;;9.27;2.22;;;5.20;99.90;;;;;;6213522;23;20060;-94
2021/01/21 13:10:05;;;;;;;2.35;0.52;;;5.40;99.90;;;;;;6213508;23;20028;-94
2021/01/21 13:12:31;;;;;;;2.42;0.80;;;5.90;99.90;;;;;;6212981;23;20016;-93